createdAt,value
2019-01-29T00:00:29.926Z,28.76
2019-01-29T00:01:33.019Z,28.76
2019-01-29T00:02:32.622Z,28.75
2019-01-29T00:03:14.431Z,28.75
2019-01-29T00:03:50.786Z,28.73
2019-01-29T00:04:27.995Z,28.73
2019-01-29T00:05:04.184Z,28.73
2019-01-29T00:05:40.432Z,28.73
2019-01-29T00:06:26.143Z,28.76
2019-01-29T00:07:13.923Z,28.76
2019-01-29T00:07:50.254Z,28.80
2019-01-29T00:08:26.685Z,28.82
2019-01-29T00:09:03.278Z,28.78
2019-01-29T00:09:39.542Z,28.85
2019-01-29T00:10:18.532Z,28.84
2019-01-29T00:10:54.920Z,28.83
2019-01-29T00:11:31.076Z,28.86
2019-01-29T00:12:08.909Z,28.86
2019-01-29T00:12:52.846Z,28.85
2019-01-29T00:13:29.137Z,28.86
2019-01-29T00:14:05.440Z,28.87
2019-01-29T00:14:41.686Z,28.90
2019-01-29T00:15:19.604Z,28.92
2019-01-29T00:15:55.769Z,28.92
2019-01-29T00:16:32.203Z,28.96
2019-01-29T00:17:08.418Z,28.96
2019-01-29T00:17:44.822Z,28.95
2019-01-29T00:18:21.106Z,28.99
2019-01-29T00:18:57.233Z,29.03
2019-01-29T00:19:33.651Z,29.03
2019-01-29T00:20:12.352Z,29.08
2019-01-29T00:20:48.724Z,29.08
2019-01-29T00:21:26.447Z,29.08
2019-01-29T00:22:02.819Z,29.09
2019-01-29T00:22:39.060Z,29.14
2019-01-29T00:23:15.334Z,29.12
2019-01-29T00:23:51.574Z,29.11
2019-01-29T00:24:27.778Z,29.11
2019-01-29T00:25:04.146Z,29.14
2019-01-29T00:25:40.519Z,29.11
2019-01-29T00:26:17.968Z,29.11
2019-01-29T00:26:55.447Z,29.17
2019-01-29T00:27:31.774Z,29.13
2019-01-29T00:28:09.132Z,29.13
2019-01-29T00:28:45.382Z,29.14
2019-01-29T00:29:23.003Z,29.17
2019-01-29T00:29:59.155Z,29.11
2019-01-29T00:30:35.346Z,29.18
2019-01-29T00:31:11.733Z,29.19
2019-01-29T00:31:51.810Z,29.17
2019-01-29T00:32:29.521Z,29.20
2019-01-29T00:33:08.943Z,29.20
2019-01-29T00:33:45.327Z,29.23
2019-01-29T00:34:23.563Z,29.23
2019-01-29T00:34:59.861Z,29.22
2019-01-29T00:35:37.384Z,29.26
2019-01-29T00:36:13.602Z,29.26
2019-01-29T00:36:50.886Z,29.27
2019-01-29T00:37:32.558Z,29.30
2019-01-29T00:38:11.021Z,29.30
2019-01-29T00:38:48.113Z,29.36
2019-01-29T00:39:25.811Z,29.28
2019-01-29T00:40:02.206Z,29.28
2019-01-29T00:40:38.426Z,29.38
2019-01-29T00:41:15.851Z,29.38
2019-01-29T00:41:58.256Z,29.40
2019-01-29T00:42:36.060Z,29.41
2019-01-29T00:43:12.446Z,29.39
2019-01-29T00:43:50.040Z,29.42
2019-01-29T00:44:29.419Z,29.42
2019-01-29T00:45:07.697Z,29.45
2019-01-29T00:45:44.260Z,29.45
2019-01-29T00:46:20.424Z,29.45
2019-01-29T00:47:02.725Z,29.44
2019-01-29T00:47:45.193Z,29.47
2019-01-29T00:48:21.463Z,29.54
2019-01-29T00:48:59.338Z,29.54
2019-01-29T00:49:37.328Z,29.49
2019-01-29T00:50:14.903Z,29.49
2019-01-29T00:50:51.266Z,29.51
2019-01-29T00:51:28.791Z,29.51
2019-01-29T00:52:06.607Z,29.53
2019-01-29T00:52:46.220Z,29.53
2019-01-29T00:53:22.544Z,29.56
2019-01-29T00:54:06.654Z,29.58
2019-01-29T00:54:44.352Z,29.66
2019-01-29T00:55:20.630Z,29.68
2019-01-29T00:55:56.933Z,29.69
2019-01-29T00:56:34.511Z,29.69
2019-01-29T00:57:14.014Z,29.71
2019-01-29T00:57:51.119Z,29.75
2019-01-29T00:58:27.306Z,29.75
2019-01-29T00:59:03.581Z,29.75
2019-01-29T00:59:41.251Z,29.83
2019-01-29T01:00:30.983Z,29.86
2019-01-29T01:01:07.659Z,29.91
2019-01-29T01:01:47.033Z,29.91
2019-01-29T01:02:29.679Z,29.98
2019-01-29T01:03:06.186Z,30.00
2019-01-29T01:03:42.719Z,30.00
2019-01-29T01:04:22.091Z,30.04
2019-01-29T01:04:58.160Z,30.07
2019-01-29T01:05:34.616Z,30.12
2019-01-29T01:06:10.821Z,30.12
2019-01-29T01:06:48.181Z,30.08
2019-01-29T01:07:27.514Z,30.11
2019-01-29T01:08:05.487Z,30.20
2019-01-29T01:08:41.855Z,30.20
2019-01-29T01:09:22.622Z,30.27
2019-01-29T01:09:58.905Z,30.30
2019-01-29T01:10:47.129Z,30.30
2019-01-29T01:11:23.355Z,30.29
2019-01-29T01:11:59.768Z,30.36
2019-01-29T01:12:35.880Z,30.36
2019-01-29T01:13:13.599Z,30.36
2019-01-29T01:13:50.023Z,30.47
2019-01-29T01:14:26.348Z,30.47
2019-01-29T01:15:04.343Z,30.48
2019-01-29T01:15:40.613Z,30.49
2019-01-29T01:16:16.992Z,30.56
2019-01-29T01:16:53.379Z,30.57
2019-01-29T01:17:29.750Z,30.63
2019-01-29T01:18:07.287Z,30.63
2019-01-29T01:18:43.467Z,30.63
2019-01-29T01:19:19.802Z,30.61
2019-01-29T01:19:56.053Z,30.67
2019-01-29T01:20:32.268Z,30.68
2019-01-29T01:21:08.491Z,30.64
2019-01-29T01:21:46.185Z,30.67
2019-01-29T01:22:24.827Z,30.63
2019-01-29T01:23:01.147Z,30.63
2019-01-29T01:23:37.559Z,30.65
2019-01-29T01:24:16.632Z,30.71
2019-01-29T01:24:52.986Z,30.68
2019-01-29T01:25:35.625Z,30.69
2019-01-29T01:26:13.236Z,30.71
2019-01-29T01:26:49.647Z,30.72
2019-01-29T01:27:25.929Z,30.70
2019-01-29T01:28:03.785Z,30.72
2019-01-29T01:28:41.495Z,30.71
2019-01-29T01:29:17.884Z,30.75
2019-01-29T01:29:54.106Z,30.77
2019-01-29T01:30:31.502Z,30.77
2019-01-29T01:31:07.740Z,30.77
2019-01-29T01:31:43.942Z,30.78
2019-01-29T01:32:20.300Z,30.75
2019-01-29T01:32:56.549Z,30.75
2019-01-29T01:33:34.238Z,30.75
2019-01-29T01:34:10.465Z,30.74
2019-01-29T01:34:46.669Z,30.71
2019-01-29T01:35:23.033Z,30.70
2019-01-29T01:35:59.324Z,30.67
2019-01-29T01:36:39.490Z,30.65
2019-01-29T01:37:15.840Z,30.68
2019-01-29T01:37:52.255Z,30.68
2019-01-29T01:38:28.480Z,30.69
2019-01-29T01:39:08.010Z,30.72
2019-01-29T01:39:44.331Z,30.73
2019-01-29T01:40:27.158Z,30.76
2019-01-29T01:41:04.506Z,30.81
2019-01-29T01:41:44.926Z,30.81
2019-01-29T01:42:21.218Z,30.85
2019-01-29T01:42:57.350Z,30.82
2019-01-29T01:43:33.531Z,30.83
2019-01-29T01:44:10.157Z,30.84
2019-01-29T01:44:48.949Z,30.86
2019-01-29T01:45:26.563Z,30.80
2019-01-29T01:46:04.169Z,30.89
2019-01-29T01:46:43.000Z,30.92
2019-01-29T01:47:23.208Z,30.94
2019-01-29T01:48:00.696Z,30.96
2019-01-29T01:48:36.983Z,31.01
2019-01-29T01:49:14.749Z,31.01
2019-01-29T01:50:11.834Z,31.04
2019-01-29T01:50:48.169Z,31.02
2019-01-29T01:51:25.832Z,31.02
2019-01-29T01:52:02.160Z,31.13
2019-01-29T01:52:39.905Z,31.18
2019-01-29T01:53:17.245Z,31.20
2019-01-29T01:53:53.485Z,31.22
2019-01-29T01:54:29.757Z,31.24
2019-01-29T01:55:09.217Z,31.29
2019-01-29T01:55:46.848Z,31.29
2019-01-29T01:56:55.229Z,31.30
2019-01-29T01:57:33.070Z,31.33
2019-01-29T01:58:09.510Z,31.38
2019-01-29T01:58:47.158Z,31.39
2019-01-29T01:59:24.750Z,31.47
2019-01-29T02:00:00.898Z,31.47
2019-01-29T02:00:55.826Z,31.53
2019-01-29T02:01:33.108Z,31.57
2019-01-29T02:02:10.613Z,31.71
2019-01-29T02:02:51.951Z,31.81
2019-01-29T02:03:28.318Z,31.90
2019-01-29T02:04:04.801Z,32.03
2019-01-29T02:04:41.266Z,32.12
2019-01-29T02:05:20.101Z,32.18
2019-01-29T02:05:56.504Z,32.27
2019-01-29T02:06:32.958Z,32.34
2019-01-29T02:07:10.893Z,32.41
2019-01-29T02:07:48.302Z,32.48
2019-01-29T02:08:25.658Z,32.56
2019-01-29T02:09:04.026Z,32.59
2019-01-29T02:09:40.452Z,32.63
2019-01-29T02:10:38.111Z,32.66
2019-01-29T02:11:35.554Z,32.73
2019-01-29T02:12:18.747Z,32.82
2019-01-29T02:12:55.368Z,32.91
2019-01-29T02:13:31.751Z,32.92
2019-01-29T02:14:11.429Z,32.94
2019-01-29T02:14:49.337Z,33.02
2019-01-29T02:15:26.603Z,33.08
2019-01-29T02:16:12.267Z,33.13
2019-01-29T02:16:48.519Z,33.18
2019-01-29T02:17:25.989Z,33.24
2019-01-29T02:18:02.394Z,33.25
2019-01-29T02:18:39.473Z,33.24
2019-01-29T02:19:15.832Z,33.25
2019-01-29T02:19:53.174Z,33.28
2019-01-29T02:20:35.630Z,33.33
2019-01-29T02:21:14.794Z,33.39
2019-01-29T02:21:50.887Z,33.45
2019-01-29T02:22:27.249Z,33.48
2019-01-29T02:23:08.101Z,33.55
2019-01-29T02:23:44.486Z,33.59
2019-01-29T02:24:22.191Z,33.66
2019-01-29T02:26:46.270Z,33.88
2019-01-29T02:27:22.367Z,33.91
2019-01-29T02:27:58.713Z,33.95
2019-01-29T02:28:34.832Z,34.00
2019-01-29T02:29:10.889Z,34.05
2019-01-29T02:29:47.256Z,33.98
2019-01-29T02:30:24.863Z,33.92
2019-01-29T02:31:00.919Z,33.91
2019-01-29T02:31:37.147Z,33.86
2019-01-29T02:32:13.364Z,33.79
2019-01-29T02:32:49.718Z,33.73
2019-01-29T02:33:25.833Z,33.69
2019-01-29T02:34:01.992Z,33.66
2019-01-29T02:34:38.301Z,33.62
2019-01-29T02:35:14.517Z,33.56
2019-01-29T02:35:51.185Z,33.51
2019-01-29T02:36:27.295Z,33.47
2019-01-29T02:37:03.562Z,33.43
2019-01-29T02:37:39.915Z,33.39
2019-01-29T02:38:16.465Z,33.33
2019-01-29T02:38:52.762Z,33.31
2019-01-29T02:39:29.333Z,33.26
2019-01-29T02:40:06.913Z,33.22
2019-01-29T02:40:42.979Z,33.17
2019-01-29T02:41:19.085Z,33.10
2019-01-29T02:41:55.138Z,33.05
2019-01-29T02:42:31.283Z,33.02
2019-01-29T02:43:07.428Z,33.01
2019-01-29T02:43:43.922Z,32.98
2019-01-29T02:44:20.757Z,32.96
2019-01-29T02:44:56.929Z,32.95
2019-01-29T02:45:33.060Z,32.93
2019-01-29T02:46:09.235Z,32.90
2019-01-29T02:46:45.358Z,32.89
2019-01-29T02:47:21.522Z,32.88
2019-01-29T02:47:57.741Z,32.87
2019-01-29T02:48:34.203Z,32.85
2019-01-29T02:49:10.544Z,32.83
2019-01-29T02:49:46.833Z,32.81
2019-01-29T02:50:23.227Z,32.77
2019-01-29T02:50:59.355Z,32.76
2019-01-29T02:51:35.381Z,32.72
2019-01-29T02:52:11.908Z,32.68
2019-01-29T02:52:48.874Z,32.68
2019-01-29T02:53:24.939Z,32.66
2019-01-29T02:54:00.928Z,32.67
2019-01-29T02:54:37.076Z,32.66
2019-01-29T02:55:13.738Z,32.66
2019-01-29T02:55:49.883Z,32.66
2019-01-29T02:56:26.037Z,32.69
2019-01-29T02:57:02.419Z,32.69
2019-01-29T02:57:38.563Z,32.70
2019-01-29T02:58:14.645Z,32.70
2019-01-29T02:58:50.798Z,32.72
2019-01-29T02:59:26.861Z,32.74
2019-01-29T03:00:02.938Z,32.74
2019-01-29T03:00:39.279Z,32.75
2019-01-29T03:01:15.630Z,32.74
2019-01-29T03:01:51.940Z,32.73
2019-01-29T03:02:28.078Z,32.73
2019-01-29T03:03:04.440Z,32.73
2019-01-29T03:03:40.698Z,32.73
2019-01-29T03:04:16.839Z,32.73
2019-01-29T03:04:53.462Z,32.75
2019-01-29T03:05:30.382Z,32.77
2019-01-29T03:06:07.023Z,32.79
2019-01-29T03:06:43.068Z,32.79
2019-01-29T03:07:19.077Z,32.79
2019-01-29T03:07:55.202Z,32.80
2019-01-29T03:08:31.297Z,32.81
2019-01-29T03:09:10.281Z,32.82
2019-01-29T03:09:46.302Z,32.85
2019-01-29T03:10:26.544Z,32.85
2019-01-29T03:11:02.820Z,32.87
2019-01-29T03:11:39.057Z,32.86
2019-01-29T03:12:15.169Z,32.89
2019-01-29T03:12:51.320Z,32.91
2019-01-29T03:13:27.503Z,32.94
2019-01-29T03:14:03.695Z,32.95
2019-01-29T03:14:40.077Z,32.97
2019-01-29T03:15:19.100Z,32.99
2019-01-29T03:15:55.204Z,33.01
2019-01-29T03:16:31.409Z,33.03
2019-01-29T03:17:07.517Z,33.03
2019-01-29T03:17:43.636Z,33.03
2019-01-29T03:18:19.732Z,33.05
2019-01-29T03:18:57.012Z,33.03
2019-01-29T03:19:33.279Z,33.03
2019-01-29T03:20:10.382Z,33.03
2019-01-29T03:20:46.478Z,33.02
2019-01-29T03:21:22.879Z,33.02
2019-01-29T03:21:58.995Z,33.01
2019-01-29T03:22:35.776Z,33.00
2019-01-29T03:23:12.154Z,32.99
2019-01-29T03:23:48.240Z,32.96
2019-01-29T03:24:24.490Z,32.94
2019-01-29T03:25:01.068Z,32.91
2019-01-29T03:25:37.176Z,32.87
2019-01-29T03:26:13.299Z,32.82
2019-01-29T03:26:49.626Z,32.76
2019-01-29T03:27:25.870Z,32.72
2019-01-29T03:28:01.978Z,32.71
2019-01-29T03:28:38.166Z,32.70
2019-01-29T03:29:14.300Z,32.70
2019-01-29T03:29:50.574Z,32.69
2019-01-29T03:30:27.192Z,32.68
2019-01-29T03:31:03.922Z,32.67
2019-01-29T03:31:40.004Z,32.67
2019-01-29T03:32:16.118Z,32.68
2019-01-29T03:32:52.292Z,32.68
2019-01-29T03:33:28.578Z,32.66
2019-01-29T03:34:04.564Z,32.65
2019-01-29T03:34:40.733Z,32.65
2019-01-29T03:35:16.949Z,32.64
2019-01-29T03:35:53.118Z,32.63
2019-01-29T03:36:29.347Z,32.61
2019-01-29T03:37:05.386Z,32.61
2019-01-29T03:37:41.624Z,32.61
2019-01-29T03:38:17.717Z,32.62
2019-01-29T03:38:53.695Z,32.64
2019-01-29T03:39:29.787Z,32.64
2019-01-29T03:40:07.493Z,32.65
2019-01-29T03:40:43.676Z,32.66
2019-01-29T03:41:19.899Z,32.68
2019-01-29T03:41:56.077Z,32.68
2019-01-29T03:42:32.223Z,32.71
2019-01-29T03:43:08.373Z,32.86
2019-01-29T03:43:44.678Z,33.02
2019-01-29T03:44:21.732Z,33.13
2019-01-29T03:44:57.809Z,33.28
2019-01-29T03:45:33.988Z,33.39
2019-01-29T03:46:10.109Z,33.53
2019-01-29T03:46:46.304Z,33.62
2019-01-29T03:47:22.430Z,33.64
2019-01-29T03:47:58.694Z,33.56
2019-01-29T03:48:34.929Z,33.55
2019-01-29T03:49:11.515Z,33.52
2019-01-29T03:49:47.646Z,33.51
2019-01-29T03:50:24.446Z,33.51
2019-01-29T03:51:00.679Z,33.46
2019-01-29T03:51:36.807Z,33.44
2019-01-29T03:52:12.897Z,33.39
2019-01-29T03:52:49.232Z,33.38
2019-01-29T03:53:25.500Z,33.37
2019-01-29T03:54:01.522Z,33.35
2019-01-29T03:54:37.641Z,33.34
2019-01-29T03:55:14.122Z,33.33
2019-01-29T03:55:50.265Z,33.33
2019-01-29T03:56:26.319Z,33.31
2019-01-29T03:57:02.460Z,33.32
2019-01-29T03:57:39.570Z,33.30
2019-01-29T03:58:15.766Z,33.27
2019-01-29T03:58:53.141Z,33.27
2019-01-29T03:59:29.289Z,33.26
2019-01-29T04:00:06.255Z,33.19
2019-01-29T04:00:42.613Z,33.20
2019-01-29T04:01:18.844Z,33.19
2019-01-29T04:01:55.626Z,33.19
2019-01-29T04:02:31.908Z,33.20
2019-01-29T04:03:08.081Z,33.21
2019-01-29T04:03:44.147Z,33.23
2019-01-29T04:04:20.106Z,33.26
2019-01-29T04:04:56.320Z,33.28
2019-01-29T04:05:32.615Z,33.31
2019-01-29T04:06:08.690Z,33.33
2019-01-29T04:06:44.808Z,33.36
2019-01-29T04:07:20.858Z,33.37
2019-01-29T04:07:56.907Z,33.39
2019-01-29T04:08:32.957Z,33.42
2019-01-29T04:09:11.008Z,33.44
2019-01-29T04:09:47.448Z,33.48
2019-01-29T04:10:23.727Z,33.51
2019-01-29T04:10:59.878Z,33.54
2019-01-29T04:11:36.146Z,33.59
2019-01-29T04:12:12.536Z,33.66
2019-01-29T04:12:48.727Z,33.86
2019-01-29T04:13:24.873Z,34.00
2019-01-29T04:14:01.216Z,34.08
2019-01-29T04:14:37.353Z,34.11
2019-01-29T04:15:15.489Z,34.17
2019-01-29T04:15:51.723Z,34.19
2019-01-29T04:16:27.821Z,34.16
2019-01-29T04:17:05.405Z,34.15
2019-01-29T04:17:41.631Z,34.14
2019-01-29T04:18:17.721Z,34.12
2019-01-29T04:18:53.987Z,34.10
2019-01-29T04:19:30.376Z,34.10
2019-01-29T04:20:06.967Z,34.13
2019-01-29T04:20:43.363Z,34.19
2019-01-29T04:21:19.450Z,34.30
2019-01-29T04:21:55.753Z,34.33
2019-01-29T04:22:32.018Z,34.41
2019-01-29T04:23:08.215Z,34.46
2019-01-29T04:23:47.701Z,34.51
2019-01-29T04:24:22.169Z,34.57
2019-01-29T04:24:58.285Z,34.63
2019-01-29T04:26:27.566Z,34.66
2019-01-29T04:27:03.914Z,34.78
2019-01-29T04:27:40.040Z,34.87
2019-01-29T04:28:16.208Z,34.89
2019-01-29T04:28:52.543Z,34.95
2019-01-29T04:29:28.789Z,35.03
2019-01-29T04:30:05.008Z,35.09
2019-01-29T04:30:41.244Z,35.15
2019-01-29T04:31:17.294Z,35.22
2019-01-29T04:31:53.439Z,35.28
2019-01-29T04:32:29.677Z,35.33
2019-01-29T04:33:05.926Z,35.37
2019-01-29T04:33:41.970Z,35.43
2019-01-29T04:34:18.312Z,35.47
2019-01-29T04:34:54.634Z,35.52
2019-01-29T04:35:30.733Z,35.55
2019-01-29T04:36:07.678Z,35.63
2019-01-29T04:36:43.742Z,35.66
2019-01-29T04:37:19.996Z,35.65
2019-01-29T04:37:56.016Z,35.71
2019-01-29T04:38:32.259Z,35.76
2019-01-29T04:39:10.219Z,35.81
2019-01-29T04:39:46.621Z,35.85
2019-01-29T04:40:23.064Z,35.92
2019-01-29T04:40:59.960Z,35.95
2019-01-29T04:41:35.956Z,35.93
2019-01-29T04:42:12.258Z,35.94
2019-01-29T04:42:48.514Z,35.92
2019-01-29T04:43:24.753Z,35.99
2019-01-29T04:44:00.888Z,35.99
2019-01-29T04:44:37.495Z,35.93
2019-01-29T04:45:14.556Z,35.83
2019-01-29T04:45:50.890Z,35.73
2019-01-29T04:46:27.094Z,35.70
2019-01-29T04:47:03.252Z,35.67
2019-01-29T04:47:39.289Z,35.63
2019-01-29T04:48:15.409Z,35.57
2019-01-29T04:48:51.558Z,35.51
2019-01-29T04:49:28.344Z,35.49
2019-01-29T04:50:04.495Z,35.43
2019-01-29T04:50:40.765Z,35.41
2019-01-29T04:51:16.893Z,35.34
2019-01-29T04:51:53.242Z,35.35
2019-01-29T04:52:29.303Z,35.32
2019-01-29T04:53:05.240Z,35.29
2019-01-29T04:53:41.227Z,35.26
2019-01-29T04:54:17.354Z,35.21
2019-01-29T04:54:53.483Z,35.19
2019-01-29T04:55:29.596Z,35.16
2019-01-29T04:56:05.782Z,35.15
2019-01-29T04:56:41.809Z,35.13
2019-01-29T04:57:18.168Z,35.10
2019-01-29T04:57:54.204Z,35.10
2019-01-29T04:58:30.260Z,35.11
2019-01-29T04:59:06.284Z,35.14
2019-01-29T04:59:42.524Z,35.11
2019-01-29T05:00:21.361Z,35.14
2019-01-29T05:00:57.448Z,35.15
2019-01-29T05:01:33.612Z,35.15
2019-01-29T05:02:09.906Z,35.13
2019-01-29T05:02:45.934Z,35.14
2019-01-29T05:03:22.211Z,35.16
2019-01-29T05:03:58.207Z,35.18
2019-01-29T05:04:34.537Z,35.19
2019-01-29T05:05:12.099Z,35.17
2019-01-29T05:05:48.093Z,35.17
2019-01-29T05:06:24.403Z,35.18
2019-01-29T05:07:00.534Z,35.18
2019-01-29T05:07:36.674Z,35.17
2019-01-29T05:08:12.805Z,35.15
2019-01-29T05:08:49.041Z,35.15
2019-01-29T05:09:25.290Z,35.12
2019-01-29T05:10:01.389Z,35.10
2019-01-29T05:10:37.867Z,35.09
2019-01-29T05:11:13.949Z,35.10
2019-01-29T05:11:50.204Z,35.10
2019-01-29T05:12:26.280Z,35.09
2019-01-29T05:13:02.568Z,35.13
2019-01-29T05:13:38.717Z,35.15
2019-01-29T05:14:14.806Z,35.17
2019-01-29T05:14:51.089Z,35.19
2019-01-29T05:15:27.358Z,35.21
2019-01-29T05:16:03.331Z,35.24
2019-01-29T05:16:39.391Z,35.25
2019-01-29T05:17:15.423Z,35.28
2019-01-29T05:17:51.635Z,35.29
2019-01-29T05:18:27.983Z,35.32
2019-01-29T05:19:04.374Z,35.35
2019-01-29T05:19:41.178Z,35.37
2019-01-29T05:20:19.444Z,35.39
2019-01-29T05:20:55.713Z,35.41
2019-01-29T05:21:31.840Z,35.42
2019-01-29T05:22:08.035Z,35.45
2019-01-29T05:22:44.392Z,35.48
2019-01-29T05:23:20.646Z,35.50
2019-01-29T05:24:06.448Z,35.52
2019-01-29T05:24:34.684Z,35.54
2019-01-29T05:25:11.307Z,35.54
2019-01-29T05:25:47.389Z,35.55
2019-01-29T05:26:23.538Z,35.54
2019-01-29T05:26:59.851Z,35.54
2019-01-29T05:27:36.020Z,35.54
2019-01-29T05:28:12.673Z,35.53
2019-01-29T05:28:48.804Z,35.50
2019-01-29T05:29:25.078Z,35.48
2019-01-29T05:30:01.184Z,35.47
2019-01-29T05:30:37.279Z,35.45
2019-01-29T05:31:13.414Z,35.42
2019-01-29T05:31:49.512Z,35.41
2019-01-29T05:32:26.019Z,35.39
2019-01-29T05:33:02.216Z,35.32
2019-01-29T05:33:38.369Z,35.31
2019-01-29T05:34:14.676Z,35.31
2019-01-29T05:34:50.986Z,35.31
2019-01-29T05:35:27.200Z,35.32
2019-01-29T05:36:03.458Z,35.30
2019-01-29T05:36:40.181Z,35.29
2019-01-29T05:37:16.250Z,35.27
2019-01-29T05:37:52.420Z,35.28
2019-01-29T05:38:28.657Z,35.31
2019-01-29T05:39:08.216Z,35.27
2019-01-29T05:39:44.256Z,35.27
2019-01-29T05:40:21.476Z,35.27
2019-01-29T05:40:57.984Z,35.27
2019-01-29T05:41:34.157Z,35.25
2019-01-29T05:42:10.359Z,35.23
2019-01-29T05:42:46.626Z,35.22
2019-01-29T05:43:22.762Z,35.21
2019-01-29T05:43:58.803Z,35.22
2019-01-29T05:44:34.917Z,35.21
2019-01-29T05:45:13.689Z,35.17
2019-01-29T05:45:49.804Z,35.07
2019-01-29T05:46:25.924Z,34.96
2019-01-29T05:47:02.010Z,34.94
2019-01-29T05:47:38.134Z,34.94
2019-01-29T05:48:14.232Z,34.93
2019-01-29T05:48:50.234Z,34.94
2019-01-29T05:49:26.768Z,34.94
2019-01-29T05:50:03.013Z,34.88
2019-01-29T05:50:39.311Z,34.90
2019-01-29T05:51:15.451Z,34.89
2019-01-29T05:51:51.587Z,34.87
2019-01-29T05:52:27.595Z,34.86
2019-01-29T05:53:03.804Z,34.85
2019-01-29T05:53:40.340Z,34.83
2019-01-29T05:54:16.730Z,34.79
2019-01-29T05:54:52.994Z,34.82
2019-01-29T05:55:29.133Z,34.82
2019-01-29T05:56:05.429Z,34.81
2019-01-29T05:56:41.580Z,34.81
2019-01-29T05:57:18.235Z,34.80
2019-01-29T05:57:55.005Z,34.81
2019-01-29T05:58:32.000Z,34.81
2019-01-29T05:59:08.143Z,34.82
2019-01-29T05:59:44.315Z,34.83
2019-01-29T06:00:27.520Z,34.87
2019-01-29T06:01:03.806Z,34.87
2019-01-29T06:01:40.021Z,34.86
2019-01-29T06:02:16.353Z,34.88
2019-01-29T06:02:52.883Z,34.92
2019-01-29T06:03:29.149Z,34.92
2019-01-29T06:04:05.540Z,34.94
2019-01-29T06:04:41.826Z,34.96
2019-01-29T06:05:18.224Z,34.98
2019-01-29T06:05:54.336Z,34.99
2019-01-29T06:06:30.834Z,35.03
2019-01-29T06:07:07.723Z,35.08
2019-01-29T06:07:43.757Z,35.08
2019-01-29T06:08:19.829Z,35.13
2019-01-29T06:08:56.053Z,35.18
2019-01-29T06:09:32.243Z,35.24
2019-01-29T06:10:09.261Z,35.23
2019-01-29T06:10:46.269Z,35.23
2019-01-29T06:11:23.631Z,35.24
2019-01-29T06:11:59.680Z,35.24
2019-01-29T06:12:36.059Z,35.24
2019-01-29T06:13:12.222Z,35.25
2019-01-29T06:13:48.347Z,35.25
2019-01-29T06:14:24.472Z,35.26
2019-01-29T06:15:00.607Z,35.28
2019-01-29T06:15:36.693Z,35.29
2019-01-29T06:16:12.928Z,35.30
2019-01-29T06:16:49.071Z,35.31
2019-01-29T06:17:27.546Z,35.31
2019-01-29T06:18:03.235Z,35.30
2019-01-29T06:18:39.364Z,35.23
2019-01-29T06:19:15.500Z,35.24
2019-01-29T06:19:52.048Z,35.26
2019-01-29T06:20:29.025Z,35.30
2019-01-29T06:21:05.376Z,35.34
2019-01-29T06:21:41.743Z,35.39
2019-01-29T06:22:17.969Z,35.43
2019-01-29T06:22:54.099Z,35.49
2019-01-29T06:23:30.259Z,35.52
2019-01-29T06:24:06.907Z,35.57
2019-01-29T06:24:42.980Z,35.57
2019-01-29T06:25:19.314Z,35.58
2019-01-29T06:25:55.361Z,35.59
2019-01-29T06:26:31.528Z,35.55
2019-01-29T06:27:07.610Z,35.55
2019-01-29T06:27:44.030Z,35.58
2019-01-29T06:28:20.320Z,35.60
2019-01-29T06:28:56.603Z,35.59
2019-01-29T06:29:32.886Z,35.60
2019-01-29T06:30:10.463Z,35.61
2019-01-29T06:30:46.704Z,35.65
2019-01-29T06:31:22.935Z,35.65
2019-01-29T06:31:59.144Z,35.69
2019-01-29T06:32:35.972Z,35.72
2019-01-29T06:33:12.074Z,35.71
2019-01-29T06:33:48.496Z,35.74
2019-01-29T06:34:24.730Z,35.75
2019-01-29T06:35:00.986Z,35.76
2019-01-29T06:35:37.048Z,35.70
2019-01-29T06:36:13.393Z,35.66
2019-01-29T06:36:51.022Z,35.64
2019-01-29T06:37:27.306Z,35.60
2019-01-29T06:38:03.568Z,35.58
2019-01-29T06:38:39.720Z,35.58
2019-01-29T06:39:15.874Z,35.60
2019-01-29T06:39:52.082Z,35.61
2019-01-29T06:40:29.418Z,35.64
2019-01-29T06:41:06.079Z,35.68
2019-01-29T06:41:42.422Z,35.70
2019-01-29T06:42:18.618Z,35.71
2019-01-29T06:42:54.880Z,35.77
2019-01-29T06:43:31.125Z,35.80
2019-01-29T06:44:07.260Z,35.87
2019-01-29T06:44:43.421Z,35.90
2019-01-29T06:45:20.802Z,35.98
2019-01-29T06:45:57.425Z,36.04
2019-01-29T06:46:33.566Z,36.09
2019-01-29T06:47:09.862Z,36.13
2019-01-29T06:47:46.351Z,36.18
2019-01-29T06:48:22.471Z,36.14
2019-01-29T06:48:58.622Z,36.10
2019-01-29T06:49:35.571Z,36.07
2019-01-29T06:50:14.247Z,36.00
2019-01-29T06:50:50.397Z,35.93
2019-01-29T06:51:26.493Z,35.89
2019-01-29T06:52:02.804Z,35.92
2019-01-29T06:52:39.028Z,35.85
2019-01-29T06:53:15.125Z,35.88
2019-01-29T06:53:51.277Z,35.85
2019-01-29T06:54:34.000Z,35.79
2019-01-29T06:55:06.661Z,35.74
2019-01-29T06:55:42.889Z,35.65
2019-01-29T06:56:19.262Z,35.60
2019-01-29T06:56:55.447Z,35.54
2019-01-29T06:57:31.767Z,35.46
2019-01-29T06:58:08.043Z,35.40
2019-01-29T06:58:44.385Z,35.38
2019-01-29T06:59:20.593Z,35.35
2019-01-29T06:59:56.763Z,35.27
2019-01-29T07:00:33.744Z,35.27
2019-01-29T07:01:09.995Z,35.25
2019-01-29T07:01:46.171Z,35.20
2019-01-29T07:02:22.294Z,35.19
2019-01-29T07:02:58.744Z,35.15
2019-01-29T07:03:34.904Z,35.13
2019-01-29T07:04:11.019Z,35.12
2019-01-29T07:04:47.019Z,35.06
2019-01-29T07:05:23.230Z,35.02
2019-01-29T07:05:59.378Z,34.98
2019-01-29T07:06:35.611Z,34.96
2019-01-29T07:07:11.780Z,34.94
2019-01-29T07:07:48.014Z,34.91
2019-01-29T07:08:24.060Z,34.89
2019-01-29T07:09:00.154Z,34.88
2019-01-29T07:09:36.254Z,34.86
2019-01-29T07:10:13.432Z,34.84
2019-01-29T07:10:49.712Z,34.82
2019-01-29T07:11:25.859Z,34.81
2019-01-29T07:12:03.945Z,34.79
2019-01-29T07:12:40.070Z,34.77
2019-01-29T07:13:16.372Z,34.72
2019-01-29T07:13:52.600Z,34.66
2019-01-29T07:14:28.883Z,34.62
2019-01-29T07:15:05.372Z,34.58
2019-01-29T07:15:58.809Z,34.54
2019-01-29T07:16:47.433Z,34.47
2019-01-29T07:17:44.980Z,34.41
2019-01-29T07:18:36.068Z,34.37
2019-01-29T07:19:25.938Z,34.31
2019-01-29T07:20:07.108Z,34.26
2019-01-29T07:20:43.358Z,34.20
2019-01-29T07:21:19.399Z,34.17
2019-01-29T07:21:55.682Z,34.13
2019-01-29T07:22:32.138Z,34.10
2019-01-29T07:23:08.200Z,34.05
2019-01-29T07:23:44.550Z,34.01
2019-01-29T07:24:20.862Z,33.99
2019-01-29T07:24:57.181Z,33.97
2019-01-29T07:25:33.394Z,33.95
2019-01-29T07:26:09.428Z,33.91
2019-01-29T07:26:45.400Z,33.90
2019-01-29T07:27:21.599Z,33.91
2019-01-29T07:27:57.673Z,33.88
2019-01-29T07:28:33.818Z,33.86
2019-01-29T07:29:10.121Z,33.82
2019-01-29T07:29:46.451Z,33.80
2019-01-29T07:30:22.747Z,33.78
2019-01-29T07:30:58.887Z,33.78
2019-01-29T07:31:35.145Z,33.75
2019-01-29T07:32:11.298Z,33.75
2019-01-29T07:32:47.438Z,33.73
2019-01-29T07:33:23.797Z,33.71
2019-01-29T07:33:59.805Z,33.70
2019-01-29T07:34:36.145Z,33.69
2019-01-29T07:35:12.475Z,33.65
2019-01-29T07:35:48.554Z,33.63
2019-01-29T07:36:24.854Z,33.63
2019-01-29T07:37:01.057Z,33.61
2019-01-29T07:37:37.347Z,33.58
2019-01-29T07:38:13.490Z,33.57
2019-01-29T07:38:49.606Z,33.58
2019-01-29T07:39:25.877Z,33.57
2019-01-29T07:40:02.060Z,33.56
2019-01-29T07:40:38.312Z,33.56
2019-01-29T07:41:14.592Z,33.55
2019-01-29T07:41:50.765Z,33.55
2019-01-29T07:42:27.071Z,33.55
2019-01-29T07:43:03.341Z,33.56
2019-01-29T07:43:39.427Z,33.55
2019-01-29T07:44:15.637Z,33.54
2019-01-29T07:44:52.491Z,33.53
2019-01-29T07:45:28.699Z,33.52
2019-01-29T07:46:05.368Z,33.51
2019-01-29T07:46:41.710Z,33.52
2019-01-29T07:47:18.047Z,33.50
2019-01-29T07:47:54.213Z,33.50
2019-01-29T07:48:30.369Z,33.48
2019-01-29T07:49:06.836Z,33.47
2019-01-29T07:49:43.237Z,33.47
2019-01-29T07:50:19.660Z,33.43
2019-01-29T07:50:55.982Z,33.43
2019-01-29T07:51:32.091Z,33.40
2019-01-29T07:52:08.663Z,33.39
2019-01-29T07:52:44.754Z,33.36
2019-01-29T07:53:20.903Z,33.36
2019-01-29T07:53:57.303Z,33.36
2019-01-29T07:54:33.639Z,33.34
2019-01-29T07:55:09.998Z,33.35
2019-01-29T07:55:46.260Z,33.34
2019-01-29T07:56:22.428Z,33.32
2019-01-29T07:56:58.470Z,33.28
2019-01-29T07:57:34.661Z,33.24
2019-01-29T07:58:10.747Z,33.25
2019-01-29T07:58:46.931Z,33.24
2019-01-29T07:59:32.674Z,33.23
2019-01-29T08:00:01.134Z,33.20